Briefing drone pour Crest

Rechercher une autre localisation

Conditions de vol :


Nous sommes le : Mercredi 27 janvier 2021
Il est 06:28 UTC (07:28 LT)

Lever de soleil : 06:37 UTC (07:37 LT)
Coucher de soleil : 17:07 UTC (18:07 LT)

Météo

L'essentiel des conditions de vol

VIGILANCE MÉTÉO FRANCE - Drôme (26)
Pas de vigilances particulieres
CARTE TEMSI
CARTES DES FRONTS
METAR de LFLU
LFLU 270600Z AUTO 29003KT 9999 SCT056 OVC068 00/M02 Q1018

Date d'émission: 27/01/2021
Heure d'émission: 06:00 UTC
Vent: 290° pour 3 KT (6 km/h)
Visibilité horizontale: > 10 km
Plafond :
- Nuages épars à 5600ft (1707m)
- Couvert à 6800ft (2073m)
Température: 0 °C
Point de rosée: -2 °C
Humidité: 86%
Pression (QNH): 1018 hPa
Prévision 24h pour Valence (15 km)
Vent : 330° pour 1 KT (5 km/h)
Temperature Maxi: 6 °C
Temperature Min: 6 °C
Humidité : 94%
Condition : Légère pluie



Warning: count(): Parameter must be an array or an object that implements Countable in /homepages/6/d509196549/htdocs/droneoxygene/briefing.php on line 743
WEBCAM POUR CREST

Réglementation

Voler en sécurité

CARTES AERONAUTIQUE 1/500.000
CARTES VAC (LFLU)
SUP AIP




Chargement des AIP...
NOTAM (CREST + Terrain à proximité / FIR )




Chargement des NOTAMS...
CONTACT PREFECTURE 26
Drôme (26) : ddt-sdsr@drome.gouv.fr


Avertissement : Les données mises à disposition sont indicatives. Oxygène Drone ne pourra être tenu responsable de dégâts causés aux biens et aux personnes.